Terminal Aerodrome Forecast
Issued by NWS Tiyan, Guam

Home | Current Version | Previous Version | Text Only | Print | Product List | Glossary On
Versions: 1 2 3 4 5 6 7 8 9 10 11 12 13 14 15 16 17
000
FTPQ31 PGUM 172334
TAFGUM
TAF
PGUM 172334Z 1800/1906 24012G22KT 6SM SHRA SCT012 BKN025 OVC090
      TEMPO 1800/1803 2SM +SHRA OVC012
     FM180800 25010KT P6SM VCSH SCT015 SCT030 BKN090=

USA.gov is the U.S. government's official web portal to all federal, state and local government web resources and services.